Time;durP1;ratioP1;P1;durP2;ratioP2;P2;SDS_P1;SDS_P2;PMS_P1;PMS_P2;Temp;Humidity;BMP_temperature;BMP_pressure;BME280_temperature;BME280_humidity;BME280_pressure;Samples;Min_cycle;Max_cycle;Signal;HPM_P1;HPM_P2
2023/03/28 00:00:36;;;;;;;;;;;;;;;5.31;50.19;101616.13;4982904;28;7249;-73
2023/03/28 00:03:02;;;;;;;;;;;;;;;5.30;49.99;101614.31;4983821;28;6964;-73
2023/03/28 00:05:28;;;;;;;;;;;;;;;5.29;49.94;101612.53;4978807;28;7076;-73
2023/03/28 00:07:55;;;;;;;;;;;;;;;5.29;50.46;101615.06;4976936;28;6780;-76
2023/03/28 00:10:21;;;;;;;;;;;;;;;5.27;50.38;101612.41;4969694;28;7032;-74
2023/03/28 00:12:46;;;;;;;;;;;;;;;5.26;50.78;101608.09;4966630;28;6999;-73
2023/03/28 00:15:12;;;;;;;;;;;;;;;5.26;50.28;101617.34;4984044;28;7043;-74
2023/03/28 00:17:40;;;;;;;;;;;;;;;5.24;50.28;101613.78;4983747;28;7097;-74
2023/03/28 00:20:11;;;;;;;;;;;;;;;5.23;50.47;101612.88;4972164;28;6801;-77
2023/03/28 00:22:37;;;;;;;;;;;;;;;5.21;50.77;101614.38;4993980;28;6848;-73
2023/03/28 00:25:07;;;;;;;;;;;;;;;5.19;50.42;101610.81;4981000;28;6775;-73
2023/03/28 00:27:34;;;;;;;;;;;;;;;5.20;51.21;101621.88;4961119;28;7079;-74
2023/03/28 00:30:03;;;;;;;;;;;;;;;5.18;50.61;101618.31;4975977;28;6788;-75
2023/03/28 00:32:29;;;;;;;;;;;;;;;5.17;50.36;101616.53;4984003;28;7058;-74
2023/03/28 00:34:55;;;;;;;;;;;;;;;5.16;50.91;101620.69;4981339;28;6788;-73
2023/03/28 00:37:21;;;;;;;;;;;;;;;5.16;50.60;101617.28;4968236;28;6964;-74
2023/03/28 00:39:50;;;;;;;;;;;;;;;5.14;51.24;101623.13;4999462;28;7071;-74
2023/03/28 00:42:23;;;;;;;;;;;;;;;5.13;50.97;101621.34;4974250;28;6867;-76
2023/03/28 00:44:51;;;;;;;;;;;;;;;5.10;51.00;101621.03;4985946;28;6864;-74
2023/03/28 00:47:48;;;;;;;;;;;;;;;5.08;50.90;101614.06;4984045;28;7038;-73
2023/03/28 00:50:26;;;;;;;;;;;;;;;5.03;51.45;101613.66;4981124;28;6891;-74
2023/03/28 00:53:03;;;;;;;;;;;;;;;5.03;50.89;101612.75;4981197;28;7316;-76
2023/03/28 00:55:49;;;;;;;;;;;;;;;5.04;51.17;101610.34;5000684;28;7067;-72
2023/03/28 00:58:26;;;;;;;;;;;;;;;5.02;51.12;101611.84;4978441;28;7022;-74
2023/03/28 01:00:54;;;;;;;;;;;;;;;5.01;51.38;101612.59;4983792;28;6808;-75
2023/03/28 01:03:26;;;;;;;;;;;;;;;5.01;51.61;101612.59;4962951;28;7219;-76
2023/03/28 01:05:53;;;;;;;;;;;;;;;4.99;51.45;101607.41;4969644;28;7052;-75
2023/03/28 01:08:21;;;;;;;;;;;;;;;4.98;51.60;101605.63;4981882;28;6991;-73
2023/03/28 01:10:48;;;;;;;;;;;;;;;4.99;51.71;101606.50;4978231;28;6792;-74
2023/03/28 01:13:19;;;;;;;;;;;;;;;4.98;51.55;101605.63;4968250;28;6966;-73
2023/03/28 01:15:49;;;;;;;;;;;;;;;4.98;51.62;101609.78;4981256;28;7114;-74
2023/03/28 01:18:17;;;;;;;;;;;;;;;4.94;50.88;101612.81;4985281;28;7027;-73
2023/03/28 01:21:38;;;;;;;;;;;;;;;4.89;51.17;101611.50;4984350;28;6820;-73
2023/03/28 01:24:38;;;;;;;;;;;;;;;4.83;51.14;101616.91;4982766;28;7316;-76
2023/03/28 01:27:33;;;;;;;;;;;;;;;4.78;51.67;101615.59;4973135;28;7014;-74
2023/03/28 01:30:55;;;;;;;;;;;;;;;4.72;51.18;101613.38;4985568;28;6807;-75
2023/03/28 01:34:09;;;;;;;;;;;;;;;4.67;51.18;101612.09;4982399;28;11277;-72
2023/03/28 01:36:52;;;;;;;;;;;;;;;4.62;51.90;101601.53;4989886;28;7197;-75
2023/03/28 01:40:12;;;;;;;;;;;;;;;4.64;52.27;101612.69;4978127;28;6793;-73
2023/03/28 01:43:16;;;;;;;;;;;;;;;4.65;51.90;101608.53;4962367;28;6816;-73
2023/03/28 01:46:42;;;;;;;;;;;;;;;4.65;51.93;101616.16;4980200;28;7064;-74
2023/03/28 01:49:21;;;;;;;;;;;;;;;4.63;51.98;101615.09;4962098;28;7230;-74
2023/03/28 01:52:17;;;;;;;;;;;;;;;4.63;52.27;101608.38;4929266;28;6984;-75
2023/03/28 01:54:43;;;;;;;;;;;;;;;4.61;52.19;101607.34;4974326;28;6975;-73
2023/03/28 01:57:14;;;;;;;;;;;;;;;4.61;52.40;101608.97;4981125;28;6832;-74
2023/03/28 02:00:14;;;;;;;;;;;;;;;4.61;51.72;101606.44;4979014;28;6926;-74
2023/03/28 02:02:59;;;;;;;;;;;;;;;4.58;51.67;101602.88;4970907;28;12639;-73
2023/03/28 02:05:30;;;;;;;;;;;;;;;4.58;52.61;101602.88;4977965;28;6844;-72
2023/03/28 02:07:59;;;;;;;;;;;;;;;4.58;51.87;101600.34;4955612;28;6978;-72
2023/03/28 02:10:30;;;;;;;;;;;;;;;4.58;51.79;101594.34;4972859;28;7225;-73
2023/03/28 02:13:14;;;;;;;;;;;;;;;4.55;52.77;101595.00;4979351;28;6946;-74
2023/03/28 02:15:47;;;;;;;;;;;;;;;4.57;52.25;101590.03;4960289;28;7003;-74
2023/03/28 02:18:22;;;;;;;;;;;;;;;4.55;52.42;101594.09;4980220;28;6824;-74
2023/03/28 02:20:59;;;;;;;;;;;;;;;4.54;52.14;101589.75;4976663;28;7004;-74
2023/03/28 02:23:39;;;;;;;;;;;;;;;4.55;52.72;101589.00;4983358;28;6997;-74
2023/03/28 02:26:05;;;;;;;;;;;;;;;4.54;52.79;101597.38;4983073;28;6804;-73
2023/03/28 02:28:35;;;;;;;;;;;;;;;4.53;52.42;101593.94;4967008;28;8010;-80
2023/03/28 02:31:03;;;;;;;;;;;;;;;4.53;52.40;101590.53;4977900;28;8546;-80
2023/03/28 02:33:41;;;;;;;;;;;;;;;4.50;52.53;101585.16;4977527;28;7340;-76
2023/03/28 02:36:58;;;;;;;;;;;;;;;4.50;52.38;101587.72;4976954;28;7078;-80
2023/03/28 02:39:45;;;;;;;;;;;;;;;4.47;52.54;101587.41;4986354;28;8602;-76
2023/03/28 02:42:41;;;;;;;;;;;;;;;4.45;52.26;101587.28;4983988;28;7039;-79
2023/03/28 02:46:03;;;;;;;;;;;;;;;4.42;52.44;101581.91;4980465;28;7143;-78
2023/03/28 02:48:54;;;;;;;;;;;;;;;4.40;52.97;101591.03;4985361;28;6820;-80
2023/03/28 02:51:40;;;;;;;;;;;;;;;4.38;53.27;101585.81;4982726;28;7036;-81
2023/03/28 02:54:34;;;;;;;;;;;;;;;4.38;52.74;101582.38;4987148;28;6808;-79
2023/03/28 02:57:10;;;;;;;;;;;;;;;4.37;53.23;101583.16;4985550;28;6892;-80
2023/03/28 03:00:00;;;;;;;;;;;;;;;4.36;52.92;101586.44;4985665;28;7885;-76
2023/03/28 03:02:27;;;;;;;;;;;;;;;4.35;53.19;101587.19;4976641;28;6891;-80
2023/03/28 03:04:56;;;;;;;;;;;;;;;4.35;52.95;101579.59;4963802;28;7209;-79
2023/03/28 03:07:23;;;;;;;;;;;;;;;4.37;53.28;101585.69;4982943;28;6872;-79
2023/03/28 03:09:52;;;;;;;;;;;;;;;4.36;53.04;101582.25;4971731;28;8540;-80
2023/03/28 03:12:22;;;;;;;;;;;;;;;4.35;52.60;101582.13;4986094;28;6803;-79
2023/03/28 03:14:49;;;;;;;;;;;;;;;4.36;52.29;101596.59;4983588;28;7177;-78
2023/03/28 03:17:19;;;;;;;;;;;;;;;4.35;53.21;101593.16;4981633;28;7063;-79
2023/03/28 03:19:45;;;;;;;;;;;;;;;4.33;52.93;101584.50;4966702;28;8707;-80
2023/03/28 03:22:11;;;;;;;;;;;;;;;4.32;53.26;101587.81;4969240;28;7031;-79
2023/03/28 03:24:38;;;;;;;;;;;;;;;4.31;53.12;101584.34;5002892;28;6994;-76
2023/03/28 03:27:03;;;;;;;;;;;;;;;4.30;52.83;101587.66;4969762;28;7101;-79
2023/03/28 03:29:29;;;;;;;;;;;;;;;4.29;53.13;101587.50;4960467;28;6987;-79
2023/03/28 03:31:55;;;;;;;;;;;;;;;4.27;53.47;101587.38;4983791;28;7320;-78
2023/03/28 03:34:20;;;;;;;;;;;;;;;4.25;52.63;101591.44;4980179;28;6803;-79
2023/03/28 03:36:48;;;;;;;;;;;;;;;4.23;53.31;101589.47;4983382;28;8406;-77
2023/03/28 03:39:14;;;;;;;;;;;;;;;4.20;52.46;101582.47;4965612;28;7180;-79
2023/03/28 03:41:40;;;;;;;;;;;;;;;4.19;52.96;101589.94;4996954;28;6807;-75
2023/03/28 03:44:06;;;;;;;;;;;;;;;4.16;53.21;101588.03;4981020;28;7003;-79
2023/03/28 03:46:32;;;;;;;;;;;;;;;4.14;53.44;101587.88;4985296;28;6835;-77
2023/03/28 03:48:57;;;;;;;;;;;;;;;4.11;53.16;101590.13;4977688;28;7458;-77
2023/03/28 03:51:23;;;;;;;;;;;;;;;4.08;53.32;101586.41;4982934;28;6772;-80
2023/03/28 03:53:49;;;;;;;;;;;;;;;4.06;53.17;101590.47;4974821;28;7074;-80
2023/03/28 03:56:15;;;;;;;;;;;;;;;4.03;53.49;101599.56;4986461;28;7274;-79
2023/03/28 03:58:41;;;;;;;;;;;;;;;4.03;53.85;101596.13;4964751;28;6989;-77
2023/03/28 04:01:12;;;;;;;;;;;;;;;4.00;53.86;101598.38;4980579;28;6799;-79
2023/03/28 04:03:42;;;;;;;;;;;;;;;3.95;52.94;101595.41;4984892;28;6812;-79
2023/03/28 04:06:09;;;;;;;;;;;;;;;3.92;53.16;101595.13;4998412;28;8502;-78
2023/03/28 04:08:35;;;;;;;;;;;;;;;3.89;53.74;101599.91;4986973;28;8221;-80
2023/03/28 04:11:01;;;;;;;;;;;;;;;3.86;53.65;101599.59;4970396;28;7146;-80
2023/03/28 04:13:26;;;;;;;;;;;;;;;3.84;53.60;101598.56;4965774;28;8560;-79
2023/03/28 04:15:52;;;;;;;;;;;;;;;3.83;53.68;101601.88;4986332;28;6930;-77
2023/03/28 04:18:19;;;;;;;;;;;;;;;3.82;53.72;101595.00;4985225;28;6796;-79
2023/03/28 04:20:54;;;;;;;;;;;;;;;3.81;54.12;101595.75;4986362;28;7018;-76
2023/03/28 04:23:24;;;;;;;;;;;;;;;3.78;53.68;101593.81;4963936;28;6987;-80
2023/03/28 04:25:57;;;;;;;;;;;;;;;3.75;53.86;101589.34;4981139;28;6804;-79
2023/03/28 04:28:26;;;;;;;;;;;;;;;3.72;53.61;101596.66;4986022;28;6800;-76
2023/03/28 04:30:57;;;;;;;;;;;;;;;3.71;53.77;101599.03;4981568;28;7229;-79
2023/03/28 04:33:24;;;;;;;;;;;;;;;3.69;54.08;101590.41;4984708;28;6855;-79
2023/03/28 04:35:55;;;;;;;;;;;;;;;3.68;54.56;101592.06;4983090;28;6865;-79
2023/03/28 04:38:35;;;;;;;;;;;;;;;3.68;53.34;101591.16;4983697;28;6792;-79
2023/03/28 04:41:02;;;;;;;;;;;;;;;3.65;54.65;101589.22;4981018;28;7167;-78
2023/03/28 04:43:28;;;;;;;;;;;;;;;3.64;53.89;101595.03;4980927;28;6808;-79
2023/03/28 04:45:55;;;;;;;;;;;;;;;3.63;53.60;101595.78;4973473;28;8547;-76
2023/03/28 04:48:22;;;;;;;;;;;;;;;3.63;53.79;101588.19;4982809;28;6864;-79
2023/03/28 04:50:48;;;;;;;;;;;;;;;3.64;53.99;101586.56;4981075;28;7074;-77
2023/03/28 04:53:15;;;;;;;;;;;;;;;3.64;53.96;101584.91;4962005;28;8476;-79
2023/03/28 04:55:42;;;;;;;;;;;;;;;3.62;54.32;101588.94;4968741;28;8581;-79
2023/03/28 04:58:09;;;;;;;;;;;;;;;3.63;54.16;101585.66;4958976;28;8438;-79
2023/03/28 05:00:35;;;;;;;;;;;;;;;3.62;54.23;101588.94;4979935;28;7010;-79
2023/03/28 05:03:03;;;;;;;;;;;;;;;3.63;54.57;101597.47;4967642;28;6976;-79
2023/03/28 05:05:31;;;;;;;;;;;;;;;3.63;54.20;101592.38;4984379;28;6891;-79
2023/03/28 05:07:59;;;;;;;;;;;;;;;3.65;54.39;101590.88;4985065;28;6792;-79
2023/03/28 05:10:25;;;;;;;;;;;;;;;3.69;54.99;101596.38;4960496;28;8617;-79
2023/03/28 05:12:51;;;;;;;;;;;;;;;3.73;54.33;101592.50;4982602;28;8494;-79
2023/03/28 05:15:16;;;;;;;;;;;;;;;3.77;55.24;101594.56;4957725;28;7172;-80
2023/03/28 05:17:42;;;;;;;;;;;;;;;3.82;55.10;101595.00;4977135;28;6973;-76
2023/03/28 05:20:09;;;;;;;;;;;;;;;3.84;54.79;101596.94;4972082;28;8194;-79
2023/03/28 05:22:36;;;;;;;;;;;;;;;3.86;54.36;101600.50;4979811;28;9321;-80
2023/03/28 05:25:03;;;;;;;;;;;;;;;3.89;54.55;101597.38;4983206;28;7102;-78
2023/03/28 05:27:29;;;;;;;;;;;;;;;3.91;55.08;101600.94;4974159;28;8354;-79
2023/03/28 05:29:55;;;;;;;;;;;;;;;3.96;55.27;101601.38;4976069;28;8438;-77
2023/03/28 05:32:21;;;;;;;;;;;;;;;3.98;54.85;101600.78;4979258;28;7051;-78
2023/03/28 05:34:46;;;;;;;;;;;;;;;4.01;54.36;101602.72;4977540;28;6987;-80
2023/03/28 05:37:12;;;;;;;;;;;;;;;4.02;54.79;101610.44;4980038;28;6835;-79
2023/03/28 05:39:38;;;;;;;;;;;;;;;4.05;55.20;101614.03;4973514;28;6832;-78
2023/03/28 05:42:04;;;;;;;;;;;;;;;4.09;54.38;101623.72;4980045;28;6792;-76
2023/03/28 05:44:30;;;;;;;;;;;;;;;4.11;55.21;101617.16;4977566;28;8504;-79
2023/03/28 05:46:56;;;;;;;;;;;;;;;4.14;55.18;101625.03;4979750;28;6783;-79
2023/03/28 05:49:21;;;;;;;;;;;;;;;4.18;54.90;101619.50;4980725;28;8348;-77
2023/03/28 05:51:47;;;;;;;;;;;;;;;4.21;54.38;101619.78;4971258;28;6995;-80
2023/03/28 05:54:13;;;;;;;;;;;;;;;4.25;55.02;101623.50;4983006;28;6772;-80
2023/03/28 05:56:38;;;;;;;;;;;;;;;4.28;54.65;101622.16;4962725;28;6834;-80
2023/03/28 05:59:04;;;;;;;;;;;;;;;4.29;54.85;101617.94;4961669;28;7177;-79
2023/03/28 06:01:30;;;;;;;;;;;;;;;4.33;54.40;101614.06;4978458;28;6788;-80
2023/03/28 06:03:57;;;;;;;;;;;;;;;4.35;54.88;101620.19;4955703;28;6949;-77
2023/03/28 06:06:22;;;;;;;;;;;;;;;4.38;54.72;101617.94;4958714;28;6991;-78
2023/03/28 06:08:48;;;;;;;;;;;;;;;4.39;55.06;101620.59;4983174;28;8427;-78
2023/03/28 06:11:14;;;;;;;;;;;;;;;4.43;55.13;101626.84;4961236;28;7011;-78
2023/03/28 06:13:40;;;;;;;;;;;;;;;4.47;54.57;101616.25;4975247;28;7220;-79
2023/03/28 06:16:05;;;;;;;;;;;;;;;4.51;55.30;101620.84;4958340;28;8559;-80
2023/03/28 06:18:31;;;;;;;;;;;;;;;4.56;54.84;101619.63;4961525;28;8519;-80
2023/03/28 06:20:57;;;;;;;;;;;;;;;4.62;55.62;101624.38;4978058;28;6844;-78
2023/03/28 06:23:23;;;;;;;;;;;;;;;4.69;54.55;101625.81;4980129;28;7006;-79
2023/03/28 06:25:49;;;;;;;;;;;;;;;4.75;55.01;101626.41;4980582;28;6800;-78
2023/03/28 06:28:15;;;;;;;;;;;;;;;4.80;55.13;101617.53;4968525;28;7133;-77
2023/03/28 06:30:41;;;;;;;;;;;;;;;4.90;55.25;101619.28;4977675;28;6788;-77
2023/03/28 06:33:07;;;;;;;;;;;;;;;4.96;54.72;101617.25;4977869;28;6844;-79
2023/03/28 06:35:33;;;;;;;;;;;;;;;5.05;55.00;101622.28;4962991;28;6984;-80
2023/03/28 06:37:59;;;;;;;;;;;;;;;5.14;55.17;101623.13;4983155;28;6946;-79
2023/03/28 06:40:26;;;;;;;;;;;;;;;5.26;55.16;101623.34;4979080;28;8756;-78
2023/03/28 06:42:52;;;;;;;;;;;;;;;5.38;55.40;101625.19;4974306;28;7239;-80
2023/03/28 06:45:18;;;;;;;;;;;;;;;5.51;55.54;101624.63;4963379;28;8375;-80
2023/03/28 06:47:44;;;;;;;;;;;;;;;5.62;55.43;101626.44;4984260;28;6963;-80
2023/03/28 06:50:11;;;;;;;;;;;;;;;5.75;54.92;101619.88;4984136;28;6859;-79
2023/03/28 06:52:37;;;;;;;;;;;;;;;5.87;54.90;101615.84;4981978;28;7703;-79
2023/03/28 06:55:03;;;;;;;;;;;;;;;6.01;55.09;101616.16;4958531;28;7057;-79
2023/03/28 06:57:29;;;;;;;;;;;;;;;6.13;54.86;101617.22;4980348;28;6804;-80
2023/03/28 06:59:54;;;;;;;;;;;;;;;6.25;54.59;101622.50;4962793;28;10255;-80
2023/03/28 07:02:20;;;;;;;;;;;;;;;6.34;54.91;101620.72;4957656;28;6934;-80
2023/03/28 07:04:46;;;;;;;;;;;;;;;6.44;54.11;101622.38;4990069;28;6918;-79
2023/03/28 07:07:11;;;;;;;;;;;;;;;6.53;54.33;101622.28;4981399;28;7249;-79
2023/03/28 07:09:37;;;;;;;;;;;;;;;6.61;54.04;101623.78;4976759;28;6780;-79
2023/03/28 07:12:03;;;;;;;;;;;;;;;6.70;53.92;101625.31;4977768;28;7133;-76
2023/03/28 07:14:29;;;;;;;;;;;;;;;6.79;54.24;101632.09;4972686;28;7181;-78
2023/03/28 07:16:54;;;;;;;;;;;;;;;6.89;53.97;101622.66;4980042;28;6841;-77
2023/03/28 07:19:21;;;;;;;;;;;;;;;6.98;53.98;101628.50;4984300;28;6840;-78
2023/03/28 07:21:46;;;;;;;;;;;;;;;7.11;53.85;101634.59;4981641;28;7566;-78
2023/03/28 07:24:12;;;;;;;;;;;;;;;7.24;53.79;101634.81;4977948;28;8327;-77
2023/03/28 07:26:38;;;;;;;;;;;;;;;7.33;53.54;101630.47;4982858;28;6939;-78
2023/03/28 07:29:04;;;;;;;;;;;;;;;7.44;53.61;101633.91;4968606;28;7174;-79
2023/03/28 07:31:30;;;;;;;;;;;;;;;7.54;53.57;101638.09;4975427;28;6963;-77
2023/03/28 07:33:56;;;;;;;;;;;;;;;7.62;53.35;101637.03;4989748;28;6909;-78
2023/03/28 07:36:25;;;;;;;;;;;;;;;7.69;52.67;101646.09;4990601;28;6788;-79
2023/03/28 07:38:51;;;;;;;;;;;;;;;7.75;52.57;101651.66;4971435;28;7030;-78
2023/03/28 07:41:17;;;;;;;;;;;;;;;7.81;52.16;101645.28;4997448;28;6771;-75
2023/03/28 07:43:44;;;;;;;;;;;;;;;7.90;52.41;101646.00;4999299;28;6800;-75
2023/03/28 07:46:14;;;;;;;;;;;;;;;7.96;52.96;101651.56;5000843;28;6780;-75
2023/03/28 07:48:42;;;;;;;;;;;;;;;8.02;51.77;101649.50;5002335;28;6868;-75
2023/03/28 07:51:09;;;;;;;;;;;;;;;8.10;52.11;101652.66;4976461;28;7035;-75
2023/03/28 07:53:36;;;;;;;;;;;;;;;8.17;52.16;101660.03;4976173;28;6792;-75
2023/03/28 07:56:03;;;;;;;;;;;;;;;8.24;51.28;101658.84;4961134;28;6977;-75
2023/03/28 07:58:29;;;;;;;;;;;;;;;8.31;52.27;101662.78;4982728;28;7217;-75
2023/03/28 08:00:55;;;;;;;;;;;;;;;8.41;52.21;101659.25;4954893;28;6961;-75
2023/03/28 08:03:22;;;;;;;;;;;;;;;8.51;52.20;101659.22;4964392;28;7281;-75
2023/03/28 08:05:50;;;;;;;;;;;;;;;8.61;51.42;101664.25;4974557;28;6800;-76
2023/03/28 08:08:18;;;;;;;;;;;;;;;8.74;52.09;101660.97;4981324;28;6796;-75
2023/03/28 08:10:50;;;;;;;;;;;;;;;8.88;51.75;101659.47;4977410;28;9597;-75
2023/03/28 08:13:19;;;;;;;;;;;;;;;9.03;51.07;101664.81;4972872;28;6812;-75
2023/03/28 08:15:49;;;;;;;;;;;;;;;9.17;50.17;101658.19;4974162;28;6988;-76
2023/03/28 08:18:19;;;;;;;;;;;;;;;9.31;50.88;101655.72;4960455;28;7033;-76
2023/03/28 08:20:49;;;;;;;;;;;;;;;9.45;50.31;101646.50;4973039;28;7245;-75
2023/03/28 08:23:15;;;;;;;;;;;;;;;9.59;49.19;101644.94;4982401;28;6927;-75
2023/03/28 08:25:42;;;;;;;;;;;;;;;9.73;49.51;101640.81;4982315;28;7237;-75
2023/03/28 08:28:08;;;;;;;;;;;;;;;9.86;48.83;101653.72;4964798;28;8451;-75
2023/03/28 08:30:34;;;;;;;;;;;;;;;10.02;48.57;101654.78;4964291;28;7328;-75
2023/03/28 08:33:03;;;;;;;;;;;;;;;10.17;48.56;101654.97;4961945;28;7054;-75
2023/03/28 08:35:30;;;;;;;;;;;;;;;10.34;48.19;101657.81;4962211;28;7464;-75
2023/03/28 08:37:56;;;;;;;;;;;;;;;10.50;47.52;101665.81;4976466;28;6787;-75
2023/03/28 08:40:27;;;;;;;;;;;;;;;10.62;47.09;101662.31;4980991;28;7174;-75
2023/03/28 08:43:28;;;;;;;;;;;;;;;10.76;46.54;101659.00;4978446;28;7146;-75
2023/03/28 08:45:58;;;;;;;;;;;;;;;10.86;45.99;101657.94;4975374;28;7299;-75
2023/03/28 08:48:42;;;;;;;;;;;;;;;10.95;45.91;101658.56;4980526;28;6820;-75
2023/03/28 08:51:39;;;;;;;;;;;;;;;11.03;45.70;101653.94;4981163;28;6994;-75
2023/03/28 08:54:55;;;;;;;;;;;;;;;11.10;45.27;101652.66;4980520;28;7280;-75
2023/03/28 08:57:30;;;;;;;;;;;;;;;11.20;44.86;101646.47;4976218;28;6816;-75
2023/03/28 09:00:21;;;;;;;;;;;;;;;11.31;44.34;101645.47;4964221;28;6998;-75
2023/03/28 09:02:47;;;;;;;;;;;;;;;11.39;43.94;101638.25;4961064;28;12837;-75
2023/03/28 09:05:15;;;;;;;;;;;;;;;11.47;43.54;101631.94;4971873;28;7129;-75
2023/03/28 09:08:35;;;;;;;;;;;;;;;11.55;42.84;101627.31;4999257;28;6995;-75
2023/03/28 09:11:56;;;;;;;;;;;;;;;11.68;42.68;101626.41;4972893;28;6860;-75
2023/03/28 09:14:40;;;;;;;;;;;;;;;11.79;41.67;101629.66;4976920;28;6812;-75
2023/03/28 09:17:32;;;;;;;;;;;;;;;11.88;41.88;101626.75;4974115;28;6787;-75
2023/03/28 09:20:20;;;;;;;;;;;;;;;12.03;41.22;101620.03;4957289;28;7263;-75
2023/03/28 09:23:04;;;;;;;;;;;;;;;12.12;40.92;101621.41;4986992;28;6800;-75
2023/03/28 09:25:45;;;;;;;;;;;;;;;12.20;40.51;101612.50;4978040;28;7287;-75
2023/03/28 09:28:58;;;;;;;;;;;;;;;12.26;39.98;101605.13;4963704;28;6916;-75
2023/03/28 09:31:36;;;;;;;;;;;;;;;12.33;39.38;101602.13;4999965;28;7038;-75
2023/03/28 09:34:05;;;;;;;;;;;;;;;12.42;38.84;101606.97;4985843;28;6959;-75
2023/03/28 09:36:39;;;;;;;;;;;;;;;12.49;38.23;101610.78;4982336;28;7214;-75
2023/03/28 09:39:38;;;;;;;;;;;;;;;12.57;38.83;101609.56;4986445;28;6875;-75
2023/03/28 09:42:16;;;;;;;;;;;;;;;12.64;38.21;101606.53;4963502;28;7010;-75
2023/03/28 09:44:55;;;;;;;;;;;;;;;12.71;37.74;101599.19;4983793;28;6879;-75
2023/03/28 09:47:21;;;;;;;;;;;;;;;12.74;37.65;101595.09;4986410;28;6868;-75
2023/03/28 09:49:46;;;;;;;;;;;;;;;12.79;37.00;101592.81;4985934;28;6867;-75
2023/03/28 09:52:17;;;;;;;;;;;;;;;12.83;37.98;101584.44;4985766;28;6780;-75
2023/03/28 09:54:44;;;;;;;;;;;;;;;12.91;37.23;101583.22;4983166;28;6803;-75
2023/03/28 09:57:10;;;;;;;;;;;;;;;13.00;37.16;101580.28;4977340;28;6781;-75
2023/03/28 09:59:36;;;;;;;;;;;;;;;13.07;37.45;101586.66;4979820;28;6976;-75
2023/03/28 10:02:03;;;;;;;;;;;;;;;13.14;36.44;101583.66;4976382;28;7917;-75
2023/03/28 10:04:28;;;;;;;;;;;;;;;13.24;36.95;101579.88;4958155;28;7062;-75
2023/03/28 10:07:15;;;;;;;;;;;;;;;13.32;37.03;101570.00;4982083;28;6772;-76
2023/03/28 10:09:54;;;;;;;;;;;;;;;13.40;35.96;101580.75;4975609;28;7221;-75
2023/03/28 10:12:34;;;;;;;;;;;;;;;13.45;36.51;101574.19;4976733;28;6800;-75
2023/03/28 10:15:00;;;;;;;;;;;;;;;13.53;35.33;101574.63;4969669;28;6883;-74
2023/03/28 10:17:35;;;;;;;;;;;;;;;13.64;35.79;101570.03;4979852;28;6780;-75
2023/03/28 10:20:20;;;;;;;;;;;;;;;13.71;34.92;101560.16;4977733;28;8280;-75
2023/03/28 10:22:50;;;;;;;;;;;;;;;13.75;35.52;101558.63;4974252;28;7422;-75
2023/03/28 10:25:39;;;;;;;;;;;;;;;13.85;34.67;101555.72;4971089;28;6904;-75
2023/03/28 10:28:12;;;;;;;;;;;;;;;14.00;34.57;101558.25;4956871;28;7305;-75
2023/03/28 10:30:38;;;;;;;;;;;;;;;14.19;34.60;101551.44;4977651;28;7193;-75
2023/03/28 10:33:16;;;;;;;;;;;;;;;14.43;35.16;101536.34;4981700;28;7035;-75
2023/03/28 10:36:06;;;;;;;;;;;;;;;14.70;34.86;101537.66;4972668;28;6941;-75
2023/03/28 10:38:42;;;;;;;;;;;;;;;14.92;33.20;101525.81;4978475;28;6792;-75
2023/03/28 10:41:26;;;;;;;;;;;;;;;15.04;32.55;101528.97;4994922;28;7168;-74
2023/03/28 10:43:53;;;;;;;;;;;;;;;15.06;31.90;101527.34;4974892;28;10064;-75
2023/03/28 10:46:29;;;;;;;;;;;;;;;15.11;32.15;101518.16;4976464;28;6808;-75
2023/03/28 10:49:02;;;;;;;;;;;;;;;15.22;31.73;101513.50;4982943;28;6800;-75
2023/03/28 10:51:31;;;;;;;;;;;;;;;15.41;31.67;101517.78;4972141;28;9579;-75
2023/03/28 10:54:30;;;;;;;;;;;;;;;15.66;31.66;101508.59;4972901;28;6808;-75
2023/03/28 10:57:26;;;;;;;;;;;;;;;15.93;31.74;101502.00;4974081;28;7289;-75
2023/03/28 11:00:05;;;;;;;;;;;;;;;16.13;31.17;101495.13;4974442;28;7245;-75
2023/03/28 11:02:48;;;;;;;;;;;;;;;16.33;30.46;101492.50;4967683;28;9174;-75
2023/03/28 11:05:44;;;;;;;;;;;;;;;16.51;30.91;101498.44;4974339;28;6793;-75
2023/03/28 11:08:37;;;;;;;;;;;;;;;16.79;30.59;101491.75;4985347;28;7397;-75
2023/03/28 11:11:28;;;;;;;;;;;;;;;17.27;30.12;101490.16;4978961;28;6819;-75
2023/03/28 11:14:09;;;;;;;;;;;;;;;17.85;29.47;101479.28;4986319;28;7023;-75
2023/03/28 11:17:11;;;;;;;;;;;;;;;18.45;29.10;101465.78;4988928;28;7182;-75
2023/03/28 11:20:24;;;;;;;;;;;;;;;18.62;28.86;101468.03;4972245;28;6807;-73
2023/03/28 11:23:23;;;;;;;;;;;;;;;18.79;28.92;101462.50;4983296;28;7306;-73
2023/03/28 11:26:08;;;;;;;;;;;;;;;19.11;28.89;101454.81;4979736;28;6819;-73
2023/03/28 11:29:29;;;;;;;;;;;;;;;19.38;27.81;101453.88;4977396;28;6824;-73
2023/03/28 11:32:33;;;;;;;;;;;;;;;19.38;26.92;101457.34;4963992;28;7106;-73
2023/03/28 11:35:30;;;;;;;;;;;;;;;19.34;26.91;101444.22;4983141;28;6896;-73
2023/03/28 11:38:21;;;;;;;;;;;;;;;19.20;26.63;101436.91;4985389;28;7268;-73
2023/03/28 11:41:14;;;;;;;;;;;;;;;18.88;26.79;101426.41;4978338;28;6841;-73
2023/03/28 11:43:55;;;;;;;;;;;;;;;18.65;26.70;101425.72;4986731;28;6957;-73
2023/03/28 11:46:45;;;;;;;;;;;;;;;18.53;27.13;101421.91;4976945;28;7015;-73
2023/03/28 11:49:36;;;;;;;;;;;;;;;18.40;27.02;101418.03;4970144;28;6792;-73
2023/03/28 11:52:18;;;;;;;;;;;;;;;18.32;26.75;101410.00;4984667;28;7078;-73
2023/03/28 11:55:00;;;;;;;;;;;;;;;18.14;26.63;101406.81;4981233;28;6870;-73
2023/03/28 11:57:41;;;;;;;;;;;;;;;17.85;27.09;101410.16;4984676;28;7015;-73
2023/03/28 12:00:33;;;;;;;;;;;;;;;17.63;26.90;101393.84;4981316;28;6812;-73
2023/03/28 12:03:15;;;;;;;;;;;;;;;17.47;27.70;101389.84;4986161;28;11386;-73
2023/03/28 12:06:19;;;;;;;;;;;;;;;17.45;27.59;101383.75;4982678;28;6831;-73
2023/03/28 12:09:18;;;;;;;;;;;;;;;17.54;27.31;101380.59;4967732;28;8381;-73
2023/03/28 12:11:59;;;;;;;;;;;;;;;17.44;27.33;101370.72;4986045;28;6888;-73
2023/03/28 12:14:52;;;;;;;;;;;;;;;17.22;27.64;101369.97;4975354;28;6966;-72
2023/03/28 12:17:49;;;;;;;;;;;;;;;17.01;27.15;101365.78;4981201;28;6847;-73
2023/03/28 12:21:05;;;;;;;;;;;;;;;16.96;27.76;101363.81;4984135;28;6860;-73
2023/03/28 12:24:16;;;;;;;;;;;;;;;16.97;27.67;101360.38;4977413;28;6932;-73
2023/03/28 12:26:53;;;;;;;;;;;;;;;16.99;28.46;101354.41;4974565;28;6796;-72
2023/03/28 12:29:48;;;;;;;;;;;;;;;17.17;28.44;101350.78;4987164;28;6800;-73
2023/03/28 12:32:39;;;;;;;;;;;;;;;17.20;28.33;101338.81;4985336;28;6969;-73
2023/03/28 12:35:46;;;;;;;;;;;;;;;17.31;28.60;101344.38;4984884;28;6808;-73
2023/03/28 12:38:47;;;;;;;;;;;;;;;17.36;28.73;101341.97;4985706;28;6977;-73
2023/03/28 12:41:23;;;;;;;;;;;;;;;17.24;28.71;101333.72;4984603;28;7051;-73
2023/03/28 12:44:12;;;;;;;;;;;;;;;17.16;28.87;101328.28;4981089;28;7794;-73
2023/03/28 12:46:48;;;;;;;;;;;;;;;17.09;28.63;101327.19;4965771;28;7292;-73
2023/03/28 12:49:37;;;;;;;;;;;;;;;17.06;28.75;101329.69;4973120;28;6955;-73
2023/03/28 12:52:06;;;;;;;;;;;;;;;17.06;29.03;101325.38;4955539;28;7565;-73
2023/03/28 12:54:51;;;;;;;;;;;;;;;17.16;28.73;101323.09;4955020;28;7511;-75
2023/03/28 12:57:39;;;;;;;;;;;;;;;17.27;28.49;101316.59;4981552;28;6998;-75
2023/03/28 13:00:11;;;;;;;;;;;;;;;17.31;28.51;101309.81;4987437;28;6808;-75
2023/03/28 13:03:17;;;;;;;;;;;;;;;17.32;28.30;101299.50;4986086;28;11029;-75
2023/03/28 13:06:42;;;;;;;;;;;;;;;17.65;28.83;101295.41;4985516;28;6808;-75
2023/03/28 13:09:35;;;;;;;;;;;;;;;18.04;27.96;101296.69;4974924;28;6820;-75
2023/03/28 13:12:57;;;;;;;;;;;;;;;18.25;28.04;101280.91;4976961;28;7027;-75
2023/03/28 13:15:30;;;;;;;;;;;;;;;18.20;26.76;101287.66;4973633;28;6884;-75
2023/03/28 13:18:20;;;;;;;;;;;;;;;18.30;27.60;101268.97;4974363;28;7302;-75
2023/03/28 13:20:52;;;;;;;;;;;;;;;18.64;27.16;101273.38;4977218;28;6967;-76
2023/03/28 13:23:28;;;;;;;;;;;;;;;19.02;26.77;101268.41;4980820;28;6879;-75
2023/03/28 13:26:01;;;;;;;;;;;;;;;19.40;26.91;101263.31;4979758;28;6800;-76
2023/03/28 13:28:51;;;;;;;;;;;;;;;19.75;26.52;101256.34;4983940;28;6795;-76
2023/03/28 13:31:18;;;;;;;;;;;;;;;20.08;26.13;101245.84;4981891;28;6837;-74
2023/03/28 13:33:59;;;;;;;;;;;;;;;20.28;25.98;101240.25;4985830;28;6788;-73
2023/03/28 13:36:32;;;;;;;;;;;;;;;20.55;25.60;101239.03;4982596;28;6812;-73
2023/03/28 13:39:07;;;;;;;;;;;;;;;20.71;24.88;101239.34;4982411;28;6994;-73